sensor_id;sensor_type;location;lat;lon;timestamp;temperature;humidity
24250;DHT22;12379;49.820;8.648;2023-07-22T00:00:55;17.90;99.90
24250;DHT22;12379;49.820;8.648;2023-07-22T00:03:20;18.00;99.90
24250;DHT22;12379;49.820;8.648;2023-07-22T00:05:46;17.90;99.90
24250;DHT22;12379;49.820;8.648;2023-07-22T00:08:11;17.90;99.90
24250;DHT22;12379;49.820;8.648;2023-07-22T00:10:41;17.90;99.90
24250;DHT22;12379;49.820;8.648;2023-07-22T00:13:07;18.00;99.90
24250;DHT22;12379;49.820;8.648;2023-07-22T00:15:33;18.00;99.90
24250;DHT22;12379;49.820;8.648;2023-07-22T00:17:58;17.90;99.90
24250;DHT22;12379;49.820;8.648;2023-07-22T00:20:25;17.80;99.90
24250;DHT22;12379;49.820;8.648;2023-07-22T00:22:51;17.70;99.90
24250;DHT22;12379;49.820;8.648;2023-07-22T00:25:17;17.70;99.90
24250;DHT22;12379;49.820;8.648;2023-07-22T00:27:42;17.80;99.90
24250;DHT22;12379;49.820;8.648;2023-07-22T00:30:08;17.70;99.90
24250;DHT22;12379;49.820;8.648;2023-07-22T00:32:34;17.70;99.90
24250;DHT22;12379;49.820;8.648;2023-07-22T00:35:03;17.70;99.90
24250;DHT22;12379;49.820;8.648;2023-07-22T00:37:30;17.60;99.90
24250;DHT22;12379;49.820;8.648;2023-07-22T00:39:56;17.50;99.90
24250;DHT22;12379;49.820;8.648;2023-07-22T00:42:21;17.50;99.90
24250;DHT22;12379;49.820;8.648;2023-07-22T00:44:47;17.40;99.90
24250;DHT22;12379;49.820;8.648;2023-07-22T00:47:13;17.30;99.90
24250;DHT22;12379;49.820;8.648;2023-07-22T00:49:39;17.10;99.90
24250;DHT22;12379;49.820;8.648;2023-07-22T00:52:05;17.30;99.90
24250;DHT22;12379;49.820;8.648;2023-07-22T00:54:31;17.30;99.90
24250;DHT22;12379;49.820;8.648;2023-07-22T00:56:57;17.30;99.90
24250;DHT22;12379;49.820;8.648;2023-07-22T00:59:26;17.30;99.90
24250;DHT22;12379;49.820;8.648;2023-07-22T01:01:52;17.40;99.90
24250;DHT22;12379;49.820;8.648;2023-07-22T01:04:19;17.30;99.90
24250;DHT22;12379;49.820;8.648;2023-07-22T01:06:45;17.30;99.90
24250;DHT22;12379;49.820;8.648;2023-07-22T01:09:11;17.20;99.90
24250;DHT22;12379;49.820;8.648;2023-07-22T01:11:36;17.00;99.90
24250;DHT22;12379;49.820;8.648;2023-07-22T01:14:02;16.80;99.90
24250;DHT22;12379;49.820;8.648;2023-07-22T01:16:29;16.80;99.90
24250;DHT22;12379;49.820;8.648;2023-07-22T01:18:55;16.70;99.90
24250;DHT22;12379;49.820;8.648;2023-07-22T01:21:25;16.70;99.90
24250;DHT22;12379;49.820;8.648;2023-07-22T01:23:51;16.70;99.90
24250;DHT22;12379;49.820;8.648;2023-07-22T01:26:17;16.60;99.90
24250;DHT22;12379;49.820;8.648;2023-07-22T01:28:43;16.60;99.90
24250;DHT22;12379;49.820;8.648;2023-07-22T01:31:08;16.50;99.90
24250;DHT22;12379;49.820;8.648;2023-07-22T01:33:34;16.60;99.90
24250;DHT22;12379;49.820;8.648;2023-07-22T01:36:00;16.50;99.90
24250;DHT22;12379;49.820;8.648;2023-07-22T01:38:26;16.50;99.90
24250;DHT22;12379;49.820;8.648;2023-07-22T01:40:51;16.60;99.90
24250;DHT22;12379;49.820;8.648;2023-07-22T01:43:17;16.50;99.90
24250;DHT22;12379;49.820;8.648;2023-07-22T01:45:42;16.50;99.90
24250;DHT22;12379;49.820;8.648;2023-07-22T01:48:08;16.50;99.90
24250;DHT22;12379;49.820;8.648;2023-07-22T01:50:34;16.50;99.90
24250;DHT22;12379;49.820;8.648;2023-07-22T01:52:59;16.50;99.90
24250;DHT22;12379;49.820;8.648;2023-07-22T01:55:25;16.50;99.90
24250;DHT22;12379;49.820;8.648;2023-07-22T01:57:51;16.40;99.90
24250;DHT22;12379;49.820;8.648;2023-07-22T02:00:16;16.50;99.90
24250;DHT22;12379;49.820;8.648;2023-07-22T02:02:42;16.40;99.90
24250;DHT22;12379;49.820;8.648;2023-07-22T02:05:09;16.50;99.90
24250;DHT22;12379;49.820;8.648;2023-07-22T02:07:36;16.40;99.90
24250;DHT22;12379;49.820;8.648;2023-07-22T02:10:01;16.40;99.90
24250;DHT22;12379;49.820;8.648;2023-07-22T02:12:27;16.40;99.90
24250;DHT22;12379;49.820;8.648;2023-07-22T02:14:53;16.40;99.90
24250;DHT22;12379;49.820;8.648;2023-07-22T02:17:18;16.50;99.90
24250;DHT22;12379;49.820;8.648;2023-07-22T02:19:45;16.60;99.90
24250;DHT22;12379;49.820;8.648;2023-07-22T02:22:11;16.60;99.90
24250;DHT22;12379;49.820;8.648;2023-07-22T02:24:37;16.60;99.90
24250;DHT22;12379;49.820;8.648;2023-07-22T02:27:04;16.50;99.90
24250;DHT22;12379;49.820;8.648;2023-07-22T02:29:29;16.50;99.90
24250;DHT22;12379;49.820;8.648;2023-07-22T02:31:56;16.50;99.90
24250;DHT22;12379;49.820;8.648;2023-07-22T02:34:23;16.50;99.90
24250;DHT22;12379;49.820;8.648;2023-07-22T02:36:48;16.40;99.90
24250;DHT22;12379;49.820;8.648;2023-07-22T02:39:14;16.40;99.90
24250;DHT22;12379;49.820;8.648;2023-07-22T02:41:41;16.40;99.90
24250;DHT22;12379;49.820;8.648;2023-07-22T02:44:06;16.40;99.90
24250;DHT22;12379;49.820;8.648;2023-07-22T02:46:32;16.30;99.90
24250;DHT22;12379;49.820;8.648;2023-07-22T02:48:58;16.20;99.90
24250;DHT22;12379;49.820;8.648;2023-07-22T02:51:24;16.20;99.90
24250;DHT22;12379;49.820;8.648;2023-07-22T02:53:50;16.10;99.90
24250;DHT22;12379;49.820;8.648;2023-07-22T02:56:16;16.10;99.90
24250;DHT22;12379;49.820;8.648;2023-07-22T02:58:41;16.00;99.90
24250;DHT22;12379;49.820;8.648;2023-07-22T03:01:07;16.00;99.90
24250;DHT22;12379;49.820;8.648;2023-07-22T03:03:34;16.00;99.90
24250;DHT22;12379;49.820;8.648;2023-07-22T03:06:00;16.00;99.90
24250;DHT22;12379;49.820;8.648;2023-07-22T03:08:26;16.00;99.90
24250;DHT22;12379;49.820;8.648;2023-07-22T03:10:52;16.00;99.90
24250;DHT22;12379;49.820;8.648;2023-07-22T03:13:17;15.80;99.90
24250;DHT22;12379;49.820;8.648;2023-07-22T03:15:44;15.70;99.90
24250;DHT22;12379;49.820;8.648;2023-07-22T03:18:09;15.60;99.90
24250;DHT22;12379;49.820;8.648;2023-07-22T03:20:39;15.60;99.90
24250;DHT22;12379;49.820;8.648;2023-07-22T03:23:05;15.60;99.90
24250;DHT22;12379;49.820;8.648;2023-07-22T03:25:32;15.60;99.90
24250;DHT22;12379;49.820;8.648;2023-07-22T03:27:59;15.60;99.90
24250;DHT22;12379;49.820;8.648;2023-07-22T03:30:27;15.60;99.90
24250;DHT22;12379;49.820;8.648;2023-07-22T03:32:52;15.60;99.90
24250;DHT22;12379;49.820;8.648;2023-07-22T03:35:18;15.60;99.90
24250;DHT22;12379;49.820;8.648;2023-07-22T03:37:43;15.60;99.90
24250;DHT22;12379;49.820;8.648;2023-07-22T03:40:09;15.50;99.90
24250;DHT22;12379;49.820;8.648;2023-07-22T03:42:49;15.40;99.90
24250;DHT22;12379;49.820;8.648;2023-07-22T03:45:15;15.40;99.90
24250;DHT22;12379;49.820;8.648;2023-07-22T03:47:41;15.30;99.90
24250;DHT22;12379;49.820;8.648;2023-07-22T03:50:07;15.20;99.90
24250;DHT22;12379;49.820;8.648;2023-07-22T03:52:33;15.30;99.90
24250;DHT22;12379;49.820;8.648;2023-07-22T03:54:58;15.40;99.90
24250;DHT22;12379;49.820;8.648;2023-07-22T03:57:28;15.50;99.90
24250;DHT22;12379;49.820;8.648;2023-07-22T03:59:54;15.60;99.90
24250;DHT22;12379;49.820;8.648;2023-07-22T04:02:20;15.70;99.90
24250;DHT22;12379;49.820;8.648;2023-07-22T04:04:46;15.70;99.90
24250;DHT22;12379;49.820;8.648;2023-07-22T04:07:11;15.60;99.90
24250;DHT22;12379;49.820;8.648;2023-07-22T04:09:37;15.40;99.90
24250;DHT22;12379;49.820;8.648;2023-07-22T04:12:02;15.30;99.90
24250;DHT22;12379;49.820;8.648;2023-07-22T04:14:28;15.20;99.90
24250;DHT22;12379;49.820;8.648;2023-07-22T04:16:54;15.20;99.90
24250;DHT22;12379;49.820;8.648;2023-07-22T04:19:19;15.10;99.90
24250;DHT22;12379;49.820;8.648;2023-07-22T04:21:45;15.10;99.90
24250;DHT22;12379;49.820;8.648;2023-07-22T04:24:10;15.00;99.90
24250;DHT22;12379;49.820;8.648;2023-07-22T04:26:36;15.10;99.90
24250;DHT22;12379;49.820;8.648;2023-07-22T04:29:02;15.10;99.90
24250;DHT22;12379;49.820;8.648;2023-07-22T04:31:27;15.10;99.90
24250;DHT22;12379;49.820;8.648;2023-07-22T04:33:53;15.20;99.90
24250;DHT22;12379;49.820;8.648;2023-07-22T04:36:18;15.30;99.90
24250;DHT22;12379;49.820;8.648;2023-07-22T04:38:44;15.30;99.90
24250;DHT22;12379;49.820;8.648;2023-07-22T04:41:09;15.30;99.90
24250;DHT22;12379;49.820;8.648;2023-07-22T04:43:35;15.40;99.90
24250;DHT22;12379;49.820;8.648;2023-07-22T04:46:00;15.40;99.90
24250;DHT22;12379;49.820;8.648;2023-07-22T04:48:26;15.40;99.90
24250;DHT22;12379;49.820;8.648;2023-07-22T04:50:51;15.40;99.90
24250;DHT22;12379;49.820;8.648;2023-07-22T04:53:18;15.40;99.90
24250;DHT22;12379;49.820;8.648;2023-07-22T04:55:44;15.50;99.90
24250;DHT22;12379;49.820;8.648;2023-07-22T04:58:09;15.60;99.90
24250;DHT22;12379;49.820;8.648;2023-07-22T05:00:36;15.70;99.90
24250;DHT22;12379;49.820;8.648;2023-07-22T05:03:03;15.80;99.90
24250;DHT22;12379;49.820;8.648;2023-07-22T05:05:29;15.90;99.90
24250;DHT22;12379;49.820;8.648;2023-07-22T05:07:54;16.10;99.90
24250;DHT22;12379;49.820;8.648;2023-07-22T05:10:20;16.20;99.90
24250;DHT22;12379;49.820;8.648;2023-07-22T05:12:46;16.20;99.90
24250;DHT22;12379;49.820;8.648;2023-07-22T05:15:12;16.30;99.90
24250;DHT22;12379;49.820;8.648;2023-07-22T05:17:38;16.40;99.90
24250;DHT22;12379;49.820;8.648;2023-07-22T05:20:04;16.60;99.90
24250;DHT22;12379;49.820;8.648;2023-07-22T05:22:37;16.80;99.90
24250;DHT22;12379;49.820;8.648;2023-07-22T05:25:03;16.90;99.90
24250;DHT22;12379;49.820;8.648;2023-07-22T05:27:30;16.80;99.90
24250;DHT22;12379;49.820;8.648;2023-07-22T05:29:55;16.90;99.90
24250;DHT22;12379;49.820;8.648;2023-07-22T05:32:21;16.90;99.90
24250;DHT22;12379;49.820;8.648;2023-07-22T05:34:46;17.00;99.90
24250;DHT22;12379;49.820;8.648;2023-07-22T05:37:12;17.10;99.90
24250;DHT22;12379;49.820;8.648;2023-07-22T05:39:37;17.30;99.90
24250;DHT22;12379;49.820;8.648;2023-07-22T05:42:03;17.30;99.90
24250;DHT22;12379;49.820;8.648;2023-07-22T05:44:28;17.50;99.90
24250;DHT22;12379;49.820;8.648;2023-07-22T05:46:54;17.60;99.90
24250;DHT22;12379;49.820;8.648;2023-07-22T05:49:20;17.80;99.90
24250;DHT22;12379;49.820;8.648;2023-07-22T05:51:46;18.10;99.90
24250;DHT22;12379;49.820;8.648;2023-07-22T05:54:11;18.40;99.90
24250;DHT22;12379;49.820;8.648;2023-07-22T05:56:37;18.60;99.90
24250;DHT22;12379;49.820;8.648;2023-07-22T05:59:02;18.90;99.90
24250;DHT22;12379;49.820;8.648;2023-07-22T06:01:28;19.00;99.90
24250;DHT22;12379;49.820;8.648;2023-07-22T06:03:53;19.10;99.90
24250;DHT22;12379;49.820;8.648;2023-07-22T06:06:19;19.20;99.90
24250;DHT22;12379;49.820;8.648;2023-07-22T06:08:44;19.80;99.90
24250;DHT22;12379;49.820;8.648;2023-07-22T06:11:10;20.70;99.90
24250;DHT22;12379;49.820;8.648;2023-07-22T06:13:35;21.00;99.90
24250;DHT22;12379;49.820;8.648;2023-07-22T06:16:01;21.40;99.90
24250;DHT22;12379;49.820;8.648;2023-07-22T06:18:28;21.90;99.90
24250;DHT22;12379;49.820;8.648;2023-07-22T06:20:53;22.10;99.90
24250;DHT22;12379;49.820;8.648;2023-07-22T06:23:19;22.10;99.90
24250;DHT22;12379;49.820;8.648;2023-07-22T06:25:44;22.00;99.90
24250;DHT22;12379;49.820;8.648;2023-07-22T06:28:10;21.80;99.90
24250;DHT22;12379;49.820;8.648;2023-07-22T06:30:35;21.50;99.90
24250;DHT22;12379;49.820;8.648;2023-07-22T06:33:01;20.90;99.90
24250;DHT22;12379;49.820;8.648;2023-07-22T06:35:26;20.70;99.90
24250;DHT22;12379;49.820;8.648;2023-07-22T06:37:52;20.70;99.90
24250;DHT22;12379;49.820;8.648;2023-07-22T06:40:17;20.90;99.90
24250;DHT22;12379;49.820;8.648;2023-07-22T06:42:43;21.10;99.90
24250;DHT22;12379;49.820;8.648;2023-07-22T06:45:09;20.90;99.90
24250;DHT22;12379;49.820;8.648;2023-07-22T06:47:35;20.80;99.90
24250;DHT22;12379;49.820;8.648;2023-07-22T06:50:02;20.90;99.90
24250;DHT22;12379;49.820;8.648;2023-07-22T06:52:30;21.70;99.90
24250;DHT22;12379;49.820;8.648;2023-07-22T06:54:55;22.80;99.90
24250;DHT22;12379;49.820;8.648;2023-07-22T06:57:21;24.00;99.50
24250;DHT22;12379;49.820;8.648;2023-07-22T06:59:47;24.90;98.00
24250;DHT22;12379;49.820;8.648;2023-07-22T07:02:12;25.80;95.10
24250;DHT22;12379;49.820;8.648;2023-07-22T07:04:38;25.10;95.50
24250;DHT22;12379;49.820;8.648;2023-07-22T07:07:04;25.30;94.90
24250;DHT22;12379;49.820;8.648;2023-07-22T07:09:29;24.80;95.00
24250;DHT22;12379;49.820;8.648;2023-07-22T07:11:55;24.30;95.50
24250;DHT22;12379;49.820;8.648;2023-07-22T07:14:22;24.80;95.80
24250;DHT22;12379;49.820;8.648;2023-07-22T07:16:49;25.00;94.60
24250;DHT22;12379;49.820;8.648;2023-07-22T07:19:14;25.90;93.80
24250;DHT22;12379;49.820;8.648;2023-07-22T07:21:40;26.30;92.00
24250;DHT22;12379;49.820;8.648;2023-07-22T07:24:05;25.50;91.90
24250;DHT22;12379;49.820;8.648;2023-07-22T07:26:31;24.90;92.70
24250;DHT22;12379;49.820;8.648;2023-07-22T07:28:57;24.40;93.90
24250;DHT22;12379;49.820;8.648;2023-07-22T07:31:22;24.90;93.60
24250;DHT22;12379;49.820;8.648;2023-07-22T07:33:48;24.20;93.40
24250;DHT22;12379;49.820;8.648;2023-07-22T07:36:13;24.00;93.50
24250;DHT22;12379;49.820;8.648;2023-07-22T07:38:40;23.10;94.80
24250;DHT22;12379;49.820;8.648;2023-07-22T07:41:06;23.20;95.70
24250;DHT22;12379;49.820;8.648;2023-07-22T07:43:37;23.70;95.80
24250;DHT22;12379;49.820;8.648;2023-07-22T07:48:49;24.70;94.40
24250;DHT22;12379;49.820;8.648;2023-07-22T07:51:16;24.40;94.90
24250;DHT22;12379;49.820;8.648;2023-07-22T07:53:43;24.70;94.20
24250;DHT22;12379;49.820;8.648;2023-07-22T07:56:10;24.40;94.70
24250;DHT22;12379;49.820;8.648;2023-07-22T07:58:36;24.30;95.00
24250;DHT22;12379;49.820;8.648;2023-07-22T08:01:03;24.50;95.50
24250;DHT22;12379;49.820;8.648;2023-07-22T08:03:28;25.20;93.60
24250;DHT22;12379;49.820;8.648;2023-07-22T08:05:54;25.70;91.80
24250;DHT22;12379;49.820;8.648;2023-07-22T08:08:20;26.00;91.50
24250;DHT22;12379;49.820;8.648;2023-07-22T08:10:46;27.00;88.50
24250;DHT22;12379;49.820;8.648;2023-07-22T08:13:12;27.00;85.10
24250;DHT22;12379;49.820;8.648;2023-07-22T08:15:37;25.80;89.70
24250;DHT22;12379;49.820;8.648;2023-07-22T08:18:03;25.50;90.80
24250;DHT22;12379;49.820;8.648;2023-07-22T08:20:29;25.40;91.50
24250;DHT22;12379;49.820;8.648;2023-07-22T08:22:56;25.30;91.70
24250;DHT22;12379;49.820;8.648;2023-07-22T08:25:21;25.10;92.40
24250;DHT22;12379;49.820;8.648;2023-07-22T08:27:47;25.10;92.90
24250;DHT22;12379;49.820;8.648;2023-07-22T08:30:12;25.30;92.50
24250;DHT22;12379;49.820;8.648;2023-07-22T08:32:38;25.70;91.30
24250;DHT22;12379;49.820;8.648;2023-07-22T08:35:04;26.00;91.10
24250;DHT22;12379;49.820;8.648;2023-07-22T08:37:31;26.70;89.40
24250;DHT22;12379;49.820;8.648;2023-07-22T08:39:56;27.20;87.90
24250;DHT22;12379;49.820;8.648;2023-07-22T08:42:23;28.00;87.00
24250;DHT22;12379;49.820;8.648;2023-07-22T08:44:54;28.70;85.50
24250;DHT22;12379;49.820;8.648;2023-07-22T08:47:22;29.30;80.90
24250;DHT22;12379;49.820;8.648;2023-07-22T08:49:52;29.40;78.40
24250;DHT22;12379;49.820;8.648;2023-07-22T08:52:18;28.40;74.10
24250;DHT22;12379;49.820;8.648;2023-07-22T08:54:44;27.40;77.40
24250;DHT22;12379;49.820;8.648;2023-07-22T08:57:17;26.50;79.70
24250;DHT22;12379;49.820;8.648;2023-07-22T08:59:44;26.10;82.00
24250;DHT22;12379;49.820;8.648;2023-07-22T09:02:12;26.40;81.90
24250;DHT22;12379;49.820;8.648;2023-07-22T09:04:39;26.50;82.70
24250;DHT22;12379;49.820;8.648;2023-07-22T09:07:06;26.40;79.60
24250;DHT22;12379;49.820;8.648;2023-07-22T09:09:32;26.50;80.20
24250;DHT22;12379;49.820;8.648;2023-07-22T09:11:59;26.40;80.70
24250;DHT22;12379;49.820;8.648;2023-07-22T09:14:25;26.90;79.80
24250;DHT22;12379;49.820;8.648;2023-07-22T09:16:51;27.00;77.80
24250;DHT22;12379;49.820;8.648;2023-07-22T09:19:17;26.40;80.10
24250;DHT22;12379;49.820;8.648;2023-07-22T09:21:42;26.50;78.40
24250;DHT22;12379;49.820;8.648;2023-07-22T09:24:29;26.70;75.00
24250;DHT22;12379;49.820;8.648;2023-07-22T09:26:55;26.80;75.60
24250;DHT22;12379;49.820;8.648;2023-07-22T09:29:37;26.60;75.10
24250;DHT22;12379;49.820;8.648;2023-07-22T09:32:05;27.00;74.90
24250;DHT22;12379;49.820;8.648;2023-07-22T09:34:30;26.70;76.50
24250;DHT22;12379;49.820;8.648;2023-07-22T09:36:57;26.70;76.00
24250;DHT22;12379;49.820;8.648;2023-07-22T09:39:23;26.60;76.30
24250;DHT22;12379;49.820;8.648;2023-07-22T09:41:50;26.30;77.20
24250;DHT22;12379;49.820;8.648;2023-07-22T09:44:15;26.50;77.30
24250;DHT22;12379;49.820;8.648;2023-07-22T09:46:41;26.30;76.50
24250;DHT22;12379;49.820;8.648;2023-07-22T09:49:11;26.20;76.90
24250;DHT22;12379;49.820;8.648;2023-07-22T09:51:40;26.00;77.70
24250;DHT22;12379;49.820;8.648;2023-07-22T09:54:07;25.90;78.60
24250;DHT22;12379;49.820;8.648;2023-07-22T09:56:46;25.80;78.10
24250;DHT22;12379;49.820;8.648;2023-07-22T09:59:12;25.40;79.00
24250;DHT22;12379;49.820;8.648;2023-07-22T10:01:39;25.00;77.60
24250;DHT22;12379;49.820;8.648;2023-07-22T10:04:05;25.10;79.00
24250;DHT22;12379;49.820;8.648;2023-07-22T10:06:32;25.10;78.30
24250;DHT22;12379;49.820;8.648;2023-07-22T10:09:05;24.60;79.70
24250;DHT22;12379;49.820;8.648;2023-07-22T10:11:34;24.30;81.00
24250;DHT22;12379;49.820;8.648;2023-07-22T10:14:04;24.10;82.20
24250;DHT22;12379;49.820;8.648;2023-07-22T10:16:29;24.00;83.60
24250;DHT22;12379;49.820;8.648;2023-07-22T10:18:55;24.00;82.80
24250;DHT22;12379;49.820;8.648;2023-07-22T10:21:22;24.50;82.50
24250;DHT22;12379;49.820;8.648;2023-07-22T10:23:48;25.10;80.50
24250;DHT22;12379;49.820;8.648;2023-07-22T10:26:18;24.70;80.90
24250;DHT22;12379;49.820;8.648;2023-07-22T10:28:47;24.40;82.90
24250;DHT22;12379;49.820;8.648;2023-07-22T10:31:14;24.40;83.30
24250;DHT22;12379;49.820;8.648;2023-07-22T10:33:47;24.10;84.40
24250;DHT22;12379;49.820;8.648;2023-07-22T10:36:15;23.90;85.60
24250;DHT22;12379;49.820;8.648;2023-07-22T10:38:44;23.70;84.90
24250;DHT22;12379;49.820;8.648;2023-07-22T10:41:20;23.60;85.40
24250;DHT22;12379;49.820;8.648;2023-07-22T10:44:00;23.60;86.50
24250;DHT22;12379;49.820;8.648;2023-07-22T10:46:37;23.60;87.00
24250;DHT22;12379;49.820;8.648;2023-07-22T10:49:16;23.90;86.10
24250;DHT22;12379;49.820;8.648;2023-07-22T10:51:51;24.20;85.00
24250;DHT22;12379;49.820;8.648;2023-07-22T10:54:33;24.30;84.70
24250;DHT22;12379;49.820;8.648;2023-07-22T10:57:03;24.60;85.20
24250;DHT22;12379;49.820;8.648;2023-07-22T10:59:32;25.10;83.00
24250;DHT22;12379;49.820;8.648;2023-07-22T11:02:01;25.20;82.10
24250;DHT22;12379;49.820;8.648;2023-07-22T11:04:27;25.70;80.80
24250;DHT22;12379;49.820;8.648;2023-07-22T11:06:58;26.10;80.90
24250;DHT22;12379;49.820;8.648;2023-07-22T11:14:31;26.20;77.00
24250;DHT22;12379;49.820;8.648;2023-07-22T11:16:59;26.10;75.50
24250;DHT22;12379;49.820;8.648;2023-07-22T11:19:26;25.80;75.90
24250;DHT22;12379;49.820;8.648;2023-07-22T11:21:53;25.70;76.80
24250;DHT22;12379;49.820;8.648;2023-07-22T11:24:22;25.50;76.80
24250;DHT22;12379;49.820;8.648;2023-07-22T11:26:49;25.40;77.80
24250;DHT22;12379;49.820;8.648;2023-07-22T11:29:15;25.60;76.50
24250;DHT22;12379;49.820;8.648;2023-07-22T11:31:46;25.70;75.50
24250;DHT22;12379;49.820;8.648;2023-07-22T11:34:12;25.20;76.70
24250;DHT22;12379;49.820;8.648;2023-07-22T11:36:38;25.10;76.80
24250;DHT22;12379;49.820;8.648;2023-07-22T11:39:06;25.10;76.60
24250;DHT22;12379;49.820;8.648;2023-07-22T11:41:33;24.90;77.30
24250;DHT22;12379;49.820;8.648;2023-07-22T11:43:59;25.10;77.90
24250;DHT22;12379;49.820;8.648;2023-07-22T11:46:26;25.50;76.70
24250;DHT22;12379;49.820;8.648;2023-07-22T11:48:53;25.70;75.50
24250;DHT22;12379;49.820;8.648;2023-07-22T11:51:20;25.50;76.40
24250;DHT22;12379;49.820;8.648;2023-07-22T11:53:47;25.70;75.30
24250;DHT22;12379;49.820;8.648;2023-07-22T11:56:21;26.00;74.90
24250;DHT22;12379;49.820;8.648;2023-07-22T11:58:54;25.90;74.50
24250;DHT22;12379;49.820;8.648;2023-07-22T12:01:20;25.60;73.90
24250;DHT22;12379;49.820;8.648;2023-07-22T12:03:47;25.60;74.80
24250;DHT22;12379;49.820;8.648;2023-07-22T12:06:13;26.00;75.20
24250;DHT22;12379;49.820;8.648;2023-07-22T12:08:49;26.00;74.60
24250;DHT22;12379;49.820;8.648;2023-07-22T12:11:19;25.90;74.60
24250;DHT22;12379;49.820;8.648;2023-07-22T12:13:45;25.70;74.30
24250;DHT22;12379;49.820;8.648;2023-07-22T12:16:12;25.50;74.80
24250;DHT22;12379;49.820;8.648;2023-07-22T12:18:42;25.40;75.40
24250;DHT22;12379;49.820;8.648;2023-07-22T12:21:07;25.40;74.50
24250;DHT22;12379;49.820;8.648;2023-07-22T12:23:35;25.40;74.40
24250;DHT22;12379;49.820;8.648;2023-07-22T12:26:01;25.70;72.90
24250;DHT22;12379;49.820;8.648;2023-07-22T12:28:26;25.60;73.40
24250;DHT22;12379;49.820;8.648;2023-07-22T12:30:52;25.50;72.80
24250;DHT22;12379;49.820;8.648;2023-07-22T12:33:17;25.50;74.10
24250;DHT22;12379;49.820;8.648;2023-07-22T12:35:43;25.60;73.50
24250;DHT22;12379;49.820;8.648;2023-07-22T12:38:08;25.80;73.70
24250;DHT22;12379;49.820;8.648;2023-07-22T12:40:34;26.00;73.80
24250;DHT22;12379;49.820;8.648;2023-07-22T12:43:00;26.00;73.70
24250;DHT22;12379;49.820;8.648;2023-07-22T12:45:25;26.10;73.40
24250;DHT22;12379;49.820;8.648;2023-07-22T12:47:51;26.30;72.80
24250;DHT22;12379;49.820;8.648;2023-07-22T12:50:16;26.20;70.60
24250;DHT22;12379;49.820;8.648;2023-07-22T12:52:42;25.80;69.60
24250;DHT22;12379;49.820;8.648;2023-07-22T12:55:08;25.50;69.20
24250;DHT22;12379;49.820;8.648;2023-07-22T12:57:33;25.40;69.20
24250;DHT22;12379;49.820;8.648;2023-07-22T12:59:59;25.60;68.70
24250;DHT22;12379;49.820;8.648;2023-07-22T13:02:24;25.70;68.40
24250;DHT22;12379;49.820;8.648;2023-07-22T13:04:51;26.00;67.60
24250;DHT22;12379;49.820;8.648;2023-07-22T13:07:16;26.30;67.70
24250;DHT22;12379;49.820;8.648;2023-07-22T13:09:42;26.30;68.00
24250;DHT22;12379;49.820;8.648;2023-07-22T13:12:09;26.40;67.00
24250;DHT22;12379;49.820;8.648;2023-07-22T13:14:34;26.30;66.40
24250;DHT22;12379;49.820;8.648;2023-07-22T13:17:00;26.10;67.40
24250;DHT22;12379;49.820;8.648;2023-07-22T13:19:25;26.20;67.50
24250;DHT22;12379;49.820;8.648;2023-07-22T13:21:51;26.50;66.10
24250;DHT22;12379;49.820;8.648;2023-07-22T13:24:17;26.80;63.30
24250;DHT22;12379;49.820;8.648;2023-07-22T13:26:42;26.70;63.20
24250;DHT22;12379;49.820;8.648;2023-07-22T13:29:08;26.80;62.70
24250;DHT22;12379;49.820;8.648;2023-07-22T13:31:34;26.60;62.80
24250;DHT22;12379;49.820;8.648;2023-07-22T13:33:59;26.60;63.20
24250;DHT22;12379;49.820;8.648;2023-07-22T13:36:25;26.70;62.80
24250;DHT22;12379;49.820;8.648;2023-07-22T13:38:50;26.60;63.30
24250;DHT22;12379;49.820;8.648;2023-07-22T13:41:16;26.60;63.00
24250;DHT22;12379;49.820;8.648;2023-07-22T13:43:41;26.20;63.00
24250;DHT22;12379;49.820;8.648;2023-07-22T13:46:07;26.10;64.00
24250;DHT22;12379;49.820;8.648;2023-07-22T13:48:34;26.10;63.30
24250;DHT22;12379;49.820;8.648;2023-07-22T13:50:59;26.10;63.20
24250;DHT22;12379;49.820;8.648;2023-07-22T13:53:25;26.00;64.10
24250;DHT22;12379;49.820;8.648;2023-07-22T13:55:50;26.00;63.80
24250;DHT22;12379;49.820;8.648;2023-07-22T13:58:16;26.20;63.50
24250;DHT22;12379;49.820;8.648;2023-07-22T14:00:41;26.40;62.50
24250;DHT22;12379;49.820;8.648;2023-07-22T14:03:07;26.50;62.30
24250;DHT22;12379;49.820;8.648;2023-07-22T14:05:32;26.40;62.30
24250;DHT22;12379;49.820;8.648;2023-07-22T14:07:58;26.40;62.70
24250;DHT22;12379;49.820;8.648;2023-07-22T14:10:24;26.50;62.50
24250;DHT22;12379;49.820;8.648;2023-07-22T14:12:49;26.50;61.80
24250;DHT22;12379;49.820;8.648;2023-07-22T14:15:15;26.40;61.10
24250;DHT22;12379;49.820;8.648;2023-07-22T14:17:40;26.20;61.00
24250;DHT22;12379;49.820;8.648;2023-07-22T14:20:06;26.00;62.30
24250;DHT22;12379;49.820;8.648;2023-07-22T14:22:32;26.20;61.70
24250;DHT22;12379;49.820;8.648;2023-07-22T14:24:58;26.20;61.00
24250;DHT22;12379;49.820;8.648;2023-07-22T14:27:23;26.30;60.30
24250;DHT22;12379;49.820;8.648;2023-07-22T14:29:49;26.40;60.30
24250;DHT22;12379;49.820;8.648;2023-07-22T14:32:14;26.40;59.70
24250;DHT22;12379;49.820;8.648;2023-07-22T14:34:42;26.30;60.40
24250;DHT22;12379;49.820;8.648;2023-07-22T14:37:07;26.10;60.80
24250;DHT22;12379;49.820;8.648;2023-07-22T14:39:33;26.10;61.20
24250;DHT22;12379;49.820;8.648;2023-07-22T14:41:58;26.20;60.10
24250;DHT22;12379;49.820;8.648;2023-07-22T14:44:24;26.40;59.80
24250;DHT22;12379;49.820;8.648;2023-07-22T14:46:49;26.30;59.20
24250;DHT22;12379;49.820;8.648;2023-07-22T14:49:15;26.50;59.40
24250;DHT22;12379;49.820;8.648;2023-07-22T14:51:41;26.70;60.30
24250;DHT22;12379;49.820;8.648;2023-07-22T14:54:06;26.70;58.80
24250;DHT22;12379;49.820;8.648;2023-07-22T14:56:32;26.60;59.50
24250;DHT22;12379;49.820;8.648;2023-07-22T14:58:57;26.60;59.90
24250;DHT22;12379;49.820;8.648;2023-07-22T15:01:23;26.90;59.90
24250;DHT22;12379;49.820;8.648;2023-07-22T15:03:48;26.80;58.90
24250;DHT22;12379;49.820;8.648;2023-07-22T15:06:14;26.60;58.00
24250;DHT22;12379;49.820;8.648;2023-07-22T15:08:40;26.50;58.10
24250;DHT22;12379;49.820;8.648;2023-07-22T15:11:05;26.40;58.30
24250;DHT22;12379;49.820;8.648;2023-07-22T15:13:31;26.30;58.40
24250;DHT22;12379;49.820;8.648;2023-07-22T15:15:56;26.10;58.90
24250;DHT22;12379;49.820;8.648;2023-07-22T15:18:23;26.20;58.30
24250;DHT22;12379;49.820;8.648;2023-07-22T15:20:51;26.40;58.80
24250;DHT22;12379;49.820;8.648;2023-07-22T15:23:16;26.40;57.90
24250;DHT22;12379;49.820;8.648;2023-07-22T15:25:42;26.20;58.00
24250;DHT22;12379;49.820;8.648;2023-07-22T15:28:08;26.20;57.70
24250;DHT22;12379;49.820;8.648;2023-07-22T15:30:34;26.30;57.50
24250;DHT22;12379;49.820;8.648;2023-07-22T15:32:59;26.40;57.90